Time;durP1;ratioP1;P1;durP2;ratioP2;P2;SDS_P1;SDS_P2;PMS_P1;PMS_P2;Temp;Humidity;BMP_temperature;BMP_pressure;BME280_temperature;BME280_humidity;BME280_pressure;Samples;Min_cycle;Max_cycle;Signal;HPM_P1;HPM_P2
2021/11/12 00:14:23;;;;;;;30.48;20.92;;;10.50;99.90;;;;;;5108246;28;20050;-43
2021/11/12 00:16:49;;;;;;;34.72;23.05;;;10.50;99.90;;;;;;5107775;28;20023;-43
2021/11/12 00:19:14;;;;;;;35.97;22.60;;;10.50;99.90;;;;;;5108716;28;20038;-43
2021/11/12 00:21:40;;;;;;;31.33;21.67;;;10.50;99.90;;;;;;5107174;28;20799;-43
2021/11/12 00:24:05;;;;;;;35.35;22.75;;;10.50;99.90;;;;;;5107948;28;20020;-43
2021/11/12 00:26:31;;;;;;;33.47;22.50;;;10.50;99.90;;;;;;5107797;28;20576;-42
2021/11/12 00:28:58;;;;;;;33.28;22.75;;;10.50;99.90;;;;;;5107166;28;20019;-43
2021/11/12 00:31:41;;;;;;;32.28;21.50;;;10.50;99.90;;;;;;5107668;28;20051;-42
2021/11/12 00:39:45;;;;;;;33.85;21.60;;;10.40;99.90;;;;;;5107901;28;20096;-43
2021/11/12 00:42:16;;;;;;;31.30;21.92;;;10.50;99.90;;;;;;5107499;28;20024;-43
2021/11/12 00:44:51;;;;;;;35.33;21.75;;;10.40;99.90;;;;;;5107296;28;20111;-42
2021/11/12 00:49:58;;;;;;;30.98;22.13;;;10.50;99.90;;;;;;5106861;28;20039;-44
2021/11/12 00:53:39;;;;;;;33.28;21.95;;;10.40;99.90;;;;;;5107638;28;20023;-44
2021/11/12 00:55:28;;;;;;;34.22;20.95;;;10.40;99.90;;;;;;5088375;28;20039;-43
2021/11/12 00:57:55;;;;;;;31.00;20.83;;;10.40;99.90;;;;;;5106142;28;20024;-43
2021/11/12 01:00:23;;;;;;;33.63;21.60;;;10.40;99.90;;;;;;5108131;28;20030;-43
2021/11/12 01:02:49;;;;;;;31.10;20.63;;;10.40;99.90;;;;;;5106666;28;20032;-44
2021/11/12 01:05:15;;;;;;;34.05;22.63;;;10.40;99.90;;;;;;5106545;28;20038;-42
2021/11/12 01:07:40;;;;;;;32.15;21.50;;;10.40;99.90;;;;;;5107519;28;20047;-42
2021/11/12 01:10:10;;;;;;;32.58;20.58;;;10.40;99.90;;;;;;5106833;28;20023;-42
2021/11/12 01:12:37;;;;;;;30.77;20.67;;;10.40;99.90;;;;;;5106148;28;20573;-43
2021/11/12 01:15:08;;;;;;;30.27;20.55;;;10.50;99.90;;;;;;5106601;28;20060;-43
2021/11/12 01:17:36;;;;;;;29.60;19.90;;;10.50;99.90;;;;;;5107111;28;20057;-42
2021/11/12 01:20:07;;;;;;;30.90;19.77;;;10.40;99.90;;;;;;5106500;28;20557;-43
2021/11/12 01:22:33;;;;;;;28.95;19.92;;;10.50;99.90;;;;;;5106960;28;20023;-42
2021/11/12 01:25:02;;;;;;;28.27;19.75;;;10.40;99.90;;;;;;5094831;28;20027;-42
2021/11/12 01:27:27;;;;;;;27.55;19.67;;;10.40;99.90;;;;;;5106712;28;20065;-42
2021/11/12 01:29:54;;;;;;;28.88;20.08;;;10.40;99.90;;;;;;5106184;28;20020;-43
2021/11/12 01:32:23;;;;;;;27.98;19.80;;;10.40;99.90;;;;;;5106846;28;20035;-43
2021/11/12 01:34:54;;;;;;;28.23;18.90;;;10.40;99.90;;;;;;5107191;28;20031;-42
2021/11/12 01:37:21;;;;;;;33.10;20.75;;;10.40;99.90;;;;;;5107042;28;20031;-42
2021/11/12 01:39:53;;;;;;;31.15;20.60;;;10.40;99.90;;;;;;5106141;28;20007;-43
2021/11/12 01:42:23;;;;;;;29.30;21.17;;;10.40;99.90;;;;;;5107108;28;20024;-43
2021/11/12 01:45:03;;;;;;;29.63;20.35;;;10.40;99.90;;;;;;5107484;28;20379;-42
2021/11/12 01:47:41;;;;;;;31.50;20.23;;;10.40;99.90;;;;;;5106343;28;20127;-42
2021/11/12 01:50:15;;;;;;;31.75;20.02;;;10.40;99.90;;;;;;5106498;28;20035;-42
2021/11/12 01:52:47;;;;;;;28.52;19.33;;;10.40;99.90;;;;;;5106455;28;20410;-42
2021/11/12 01:55:18;;;;;;;27.58;18.42;;;10.40;99.90;;;;;;5106568;28;20029;-43
2021/11/12 02:00:26;;;;;;;29.95;20.25;;;10.30;99.90;;;;;;5105741;28;20122;-42
2021/11/12 02:02:52;;;;;;;24.38;17.42;;;10.30;99.90;;;;;;5106742;28;20031;-43
2021/11/12 02:05:18;;;;;;;21.27;16.23;;;10.30;99.90;;;;;;5106796;28;20035;-43
2021/11/12 02:07:47;;;;;;;28.45;19.02;;;10.30;99.90;;;;;;5106069;28;20085;-42
2021/11/12 02:10:16;;;;;;;28.27;19.73;;;10.20;99.90;;;;;;5106630;28;20087;-43
2021/11/12 02:12:49;;;;;;;28.13;19.35;;;10.10;99.90;;;;;;5106525;28;20020;-43
2021/11/12 02:15:16;;;;;;;30.08;20.50;;;10.10;99.90;;;;;;5105493;28;20039;-44
2021/11/12 02:17:45;;;;;;;31.30;21.00;;;10.00;99.90;;;;;;5106423;28;20400;-43
2021/11/12 02:20:21;;;;;;;28.63;20.42;;;10.00;99.90;;;;;;5106457;28;20126;-43
2021/11/12 02:22:52;;;;;;;30.92;20.33;;;10.00;99.90;;;;;;5106078;28;20136;-43
2021/11/12 02:25:27;;;;;;;30.40;20.67;;;9.90;99.90;;;;;;5106496;28;20489;-43
2021/11/12 02:30:39;;;;;;;29.88;19.98;;;9.90;99.90;;;;;;5106199;28;20027;-44
2021/11/12 02:33:04;;;;;;;31.67;20.55;;;9.80;99.90;;;;;;5106104;28;20035;-44
2021/11/12 02:35:31;;;;;;;29.90;21.83;;;9.80;99.90;;;;;;5105742;28;20020;-44
2021/11/12 02:37:57;;;;;;;33.95;21.38;;;9.80;99.90;;;;;;5106160;28;20121;-44
2021/11/12 02:40:23;;;;;;;30.50;22.23;;;9.70;99.90;;;;;;5106238;28;20016;-43
2021/11/12 02:42:49;;;;;;;34.35;22.60;;;9.70;99.90;;;;;;5108787;28;20528;-43
2021/11/12 02:45:17;;;;;;;29.92;21.33;;;9.70;99.90;;;;;;5110223;28;20062;-43
2021/11/12 02:47:43;;;;;;;31.85;22.15;;;9.60;99.90;;;;;;5109752;28;20034;-43
2021/11/12 02:50:09;;;;;;;34.60;22.08;;;9.60;99.90;;;;;;5108856;28;20020;-43
2021/11/12 02:52:35;;;;;;;32.30;22.23;;;9.60;99.90;;;;;;5109831;28;20103;-43
2021/11/12 02:55:01;;;;;;;32.33;21.58;;;9.60;99.90;;;;;;5109526;28;20024;-43
2021/11/12 02:57:33;;;;;;;34.28;21.42;;;9.60;99.90;;;;;;5108195;28;20832;-43
2021/11/12 03:00:06;;;;;;;33.00;22.50;;;9.50;99.90;;;;;;5110119;28;20024;-44
2021/11/12 03:02:32;;;;;;;31.98;22.40;;;9.50;99.90;;;;;;5109200;28;20102;-44
2021/11/12 03:04:58;;;;;;;32.88;21.33;;;9.50;99.90;;;;;;5108407;28;20127;-44
2021/11/12 03:07:24;;;;;;;33.15;21.85;;;9.50;99.90;;;;;;5109605;28;20035;-44
2021/11/12 03:09:50;;;;;;;35.75;22.60;;;9.40;99.90;;;;;;5109833;28;20114;-44
2021/11/12 03:12:16;;;;;;;35.30;23.25;;;9.40;99.90;;;;;;5108680;28;20118;-43
2021/11/12 03:14:41;;;;;;;33.42;21.90;;;9.40;99.90;;;;;;5109378;28;20090;-44
2021/11/12 03:17:07;;;;;;;39.17;23.77;;;9.40;99.90;;;;;;5108576;28;20039;-43
2021/11/12 03:19:36;;;;;;;36.15;23.38;;;9.40;99.90;;;;;;5108624;28;20398;-43
2021/11/12 03:22:05;;;;;;;33.80;22.52;;;9.40;99.90;;;;;;5109106;28;20581;-43
2021/11/12 03:24:37;;;;;;;36.25;23.10;;;9.50;99.90;;;;;;5108179;28;20519;-43
2021/11/12 04:02:33;;;;;;;34.20;21.67;;;9.10;99.90;;;;;;5108602;28;20024;-43
2021/11/12 05:45:58;;;;;;;31.27;20.00;;;6.50;99.90;;;;;;5106109;28;20515;-44
2021/11/12 05:56:40;;;;;;;30.13;20.05;;;6.30;99.90;;;;;;5106479;28;20065;-42
2021/11/12 05:59:07;;;;;;;27.35;19.10;;;6.30;99.90;;;;;;5106164;28;20030;-41
2021/11/12 06:01:37;;;;;;;25.85;18.38;;;6.30;99.90;;;;;;5106646;28;20023;-42
2021/11/12 06:04:04;;;;;;;27.08;19.20;;;6.20;99.90;;;;;;5106566;28;20024;-43
2021/11/12 06:06:30;;;;;;;27.38;18.73;;;6.20;99.90;;;;;;5105193;28;20043;-43
2021/11/12 06:08:55;;;;;;;25.08;18.58;;;6.20;99.90;;;;;;5106677;28;20581;-43
2021/11/12 06:11:23;;;;;;;25.38;18.50;;;6.10;99.90;;;;;;5106822;28;20123;-43
2021/11/12 06:13:49;;;;;;;24.55;16.60;;;6.10;99.90;;;;;;5105234;28;20576;-42
2021/11/12 06:16:18;;;;;;;23.58;17.27;;;6.10;99.90;;;;;;5109619;28;20051;-43
2021/11/12 06:18:44;;;;;;;27.77;18.40;;;6.00;99.90;;;;;;5109689;28;20027;-42
2021/11/12 06:21:11;;;;;;;25.55;18.08;;;6.00;99.90;;;;;;5109404;28;20428;-44
2021/11/12 06:23:37;;;;;;;24.40;17.40;;;6.00;99.90;;;;;;5109964;28;20031;-44
2021/11/12 06:26:03;;;;;;;23.58;16.75;;;5.90;99.90;;;;;;5110235;28;20028;-44
2021/11/12 06:28:29;;;;;;;22.38;16.83;;;5.90;99.90;;;;;;5115645;27;20034;-43
2021/11/12 06:31:00;;;;;;;22.15;17.58;;;5.90;99.90;;;;;;5114955;27;20084;-44
2021/11/12 06:33:26;;;;;;;24.65;18.02;;;5.90;99.90;;;;;;5107860;28;20481;-44
2021/11/12 06:35:52;;;;;;;22.90;16.63;;;5.80;99.90;;;;;;5106849;28;20073;-44
2021/11/12 06:38:21;;;;;;;21.90;16.67;;;5.80;99.90;;;;;;5108848;28;20031;-44
2021/11/12 06:40:46;;;;;;;19.63;15.65;;;5.70;99.90;;;;;;5109077;28;20498;-44
2021/11/12 06:43:28;;;;;;;26.75;17.98;;;5.70;99.90;;;;;;5106606;28;20064;-43
2021/11/12 06:51:39;;;;;;;23.70;17.27;;;5.60;99.90;;;;;;5108916;28;20845;-44
2021/11/12 06:54:05;;;;;;;25.17;18.05;;;5.60;99.90;;;;;;5109455;28;20027;-43
2021/11/12 06:56:31;;;;;;;26.67;18.70;;;5.60;99.90;;;;;;5107217;28;20023;-43
2021/11/12 06:58:57;;;;;;;23.52;18.52;;;5.60;99.90;;;;;;5108381;28;20031;-43
2021/11/12 07:01:24;;;;;;;28.77;19.38;;;5.60;99.90;;;;;;5109094;27;20023;-42
2021/11/12 07:03:50;;;;;;;25.63;17.25;;;5.60;99.90;;;;;;5108100;28;20034;-43
2021/11/12 07:06:16;;;;;;;23.95;18.20;;;5.60;99.90;;;;;;5108731;28;20028;-42
2021/11/12 07:08:43;;;;;;;26.35;19.30;;;5.60;99.90;;;;;;5108688;28;20027;-43
2021/11/12 07:11:09;;;;;;;27.05;18.95;;;5.60;99.90;;;;;;5107030;28;20398;-43
2021/11/12 07:13:35;;;;;;;24.00;17.60;;;5.60;99.90;;;;;;5108667;28;20015;-43
2021/11/12 07:16:01;;;;;;;25.20;17.92;;;5.60;99.90;;;;;;5107451;28;20059;-43
2021/11/12 07:18:29;;;;;;;27.83;18.73;;;5.60;99.90;;;;;;5108227;28;20020;-34
2021/11/12 07:20:55;;;;;;;26.23;19.23;;;5.50;99.90;;;;;;5109181;28;20031;-34
2021/11/12 07:23:23;;;;;;;24.92;18.00;;;5.60;99.90;;;;;;5109741;28;20023;-33
2021/11/12 07:25:50;;;;;;;23.98;17.40;;;5.50;99.90;;;;;;5108932;28;20028;-32
2021/11/12 07:28:15;;;;;;;23.55;17.60;;;5.50;99.90;;;;;;5108259;27;20028;-32
2021/11/12 07:30:42;;;;;;;22.83;16.60;;;5.50;99.90;;;;;;5108559;28;20898;-33
2021/11/12 07:33:11;;;;;;;23.90;17.17;;;5.50;99.90;;;;;;5109001;28;20053;-33
2021/11/12 07:35:44;;;;;;;22.95;16.77;;;5.40;99.90;;;;;;5108712;27;20027;-33
2021/11/12 07:38:15;;;;;;;21.13;15.73;;;5.50;99.90;;;;;;5108824;28;20061;-33
2021/11/12 07:40:59;;;;;;;19.30;13.52;;;5.60;99.90;;;;;;5110382;28;20393;-35
2021/11/12 07:46:32;;;;;;;23.90;16.15;;;5.60;99.90;;;;;;5106998;28;20073;-31
2021/11/12 07:49:02;;;;;;;23.65;16.38;;;5.60;99.90;;;;;;5109178;28;20081;-42
2021/11/12 07:51:28;;;;;;;25.17;17.55;;;5.60;99.90;;;;;;5108186;28;20023;-44
2021/11/12 07:53:54;;;;;;;22.42;16.65;;;5.60;99.90;;;;;;5108221;27;20019;-43
2021/11/12 07:56:23;;;;;;;25.42;16.40;;;5.60;99.90;;;;;;5108400;28;20106;-43
2021/11/12 07:58:49;;;;;;;25.08;16.80;;;5.60;99.90;;;;;;5107379;28;20066;-43
2021/11/12 08:01:15;;;;;;;23.52;16.52;;;5.50;99.90;;;;;;5108203;28;20047;-43
2021/11/12 08:03:43;;;;;;;23.75;17.25;;;5.50;99.90;;;;;;5108049;28;20375;-43
2021/11/12 08:06:12;;;;;;;23.35;16.42;;;5.50;99.90;;;;;;5107651;28;20118;-46
2021/11/12 08:08:39;;;;;;;23.60;16.70;;;5.50;99.90;;;;;;5108003;28;20066;-44
2021/11/12 08:11:13;;;;;;;25.15;17.95;;;5.50;99.90;;;;;;5108391;27;20079;-43
2021/11/12 08:13:47;;;;;;;25.88;17.98;;;5.50;99.90;;;;;;5096612;28;20085;-42
2021/11/12 08:16:30;;;;;;;22.13;16.00;;;5.60;99.90;;;;;;5105378;28;20046;-43
2021/11/12 08:19:06;;;;;;;27.17;16.98;;;5.60;99.90;;;;;;5098269;28;20024;-43
2021/11/12 08:24:12;;;;;;;24.83;17.30;;;5.50;99.90;;;;;;5097274;28;20031;-42
2021/11/12 08:29:46;;;;;;;23.60;17.05;;;5.60;99.90;;;;;;5098947;28;20054;-43
2021/11/12 08:35:06;;;;;;;29.45;17.35;;;5.60;99.90;;;;;;5107094;27;20031;-41
2021/11/12 08:37:45;;;;;;;30.42;20.23;;;5.60;99.90;;;;;;5107096;28;20101;-43
2021/11/12 08:40:26;;;;;;;33.55;21.75;;;5.70;99.90;;;;;;5107556;28;20455;-43
2021/11/12 08:43:02;;;;;;;35.40;22.60;;;5.70;99.90;;;;;;5106969;28;20047;-43
2021/11/12 08:48:55;;;;;;;27.75;19.98;;;5.80;99.90;;;;;;5083126;28;20133;-43
2021/11/12 08:51:22;;;;;;;30.27;19.73;;;5.80;99.90;;;;;;5064363;28;20137;-43
2021/11/12 08:53:49;;;;;;;29.80;20.10;;;5.80;99.90;;;;;;5094536;28;20497;-42
2021/11/12 08:56:22;;;;;;;24.88;17.60;;;5.90;99.90;;;;;;5107083;28;20031;-42
2021/11/12 08:58:50;;;;;;;30.75;20.77;;;5.90;99.90;;;;;;5107009;28;20055;-43
2021/11/12 09:01:16;;;;;;;34.92;20.58;;;5.90;99.90;;;;;;5107791;28;20027;-42
2021/11/12 09:03:42;;;;;;;33.25;21.15;;;6.00;99.90;;;;;;5106320;28;20026;-43
2021/11/12 09:06:08;;;;;;;30.58;21.17;;;6.00;99.90;;;;;;5106858;28;20470;-42
2021/11/12 09:08:36;;;;;;;42.88;25.77;;;6.10;99.90;;;;;;5106631;28;20012;-43
2021/11/12 09:11:04;;;;;;;35.72;25.10;;;6.10;99.90;;;;;;5106683;28;20031;-43
2021/11/12 09:13:38;;;;;;;38.22;24.58;;;6.10;99.90;;;;;;5104617;28;20032;-42
2021/11/12 09:16:09;;;;;;;32.20;23.08;;;6.20;99.90;;;;;;5106004;28;20056;-42
2021/11/12 09:18:36;;;;;;;32.03;23.05;;;6.20;99.90;;;;;;5106847;28;20407;-42
2021/11/12 09:21:02;;;;;;;29.77;21.50;;;6.30;99.90;;;;;;5106802;28;20023;-42
2021/11/12 09:23:27;;;;;;;30.08;20.52;;;6.30;99.90;;;;;;5106382;28;20027;-42
2021/11/12 09:25:53;;;;;;;32.67;21.98;;;6.30;99.90;;;;;;5106810;28;20072;-42
2021/11/12 09:28:19;;;;;;;35.53;24.35;;;6.30;99.90;;;;;;5107014;28;20554;-42
2021/11/12 09:30:45;;;;;;;34.80;24.48;;;6.30;99.90;;;;;;5106289;28;20027;-43
2021/11/12 09:33:10;;;;;;;37.20;23.17;;;6.40;99.90;;;;;;5106735;28;20027;-43
2021/11/12 09:35:37;;;;;;;35.40;23.05;;;6.40;99.90;;;;;;5106592;28;20016;-43
2021/11/12 09:38:03;;;;;;;33.40;21.95;;;6.50;99.90;;;;;;5106058;28;20055;-43
2021/11/12 09:40:32;;;;;;;28.02;19.48;;;6.50;99.90;;;;;;5106431;28;20051;-43
2021/11/12 09:42:58;;;;;;;32.28;22.70;;;6.60;99.90;;;;;;5086699;28;20558;-43
2021/11/12 09:45:23;;;;;;;38.67;23.92;;;6.60;99.90;;;;;;5099987;28;20030;-43
2021/11/12 09:47:52;;;;;;;39.10;25.42;;;6.60;99.90;;;;;;5106518;28;20028;-44
2021/11/12 09:50:22;;;;;;;34.22;21.80;;;6.70;99.90;;;;;;5108132;28;20679;-43
2021/11/12 09:52:49;;;;;;;33.45;21.15;;;6.80;99.90;;;;;;5109473;28;20023;-42
2021/11/12 09:55:15;;;;;;;33.28;22.23;;;6.80;99.90;;;;;;5110995;27;20178;-42
2021/11/12 09:57:41;;;;;;;32.70;21.45;;;6.80;99.90;;;;;;5110517;28;20026;-45
2021/11/12 10:00:10;;;;;;;33.72;21.88;;;6.80;99.90;;;;;;5109999;28;20023;-42
2021/11/12 10:02:41;;;;;;;31.15;21.15;;;6.80;99.90;;;;;;5110597;28;20019;-42
2021/11/12 10:05:09;;;;;;;30.17;20.08;;;6.90;99.90;;;;;;5110533;28;20031;-42
2021/11/12 10:07:38;;;;;;;38.78;23.60;;;7.00;99.90;;;;;;5110666;28;20036;-42
2021/11/12 10:10:13;;;;;;;36.33;24.52;;;7.00;99.90;;;;;;5109943;28;20016;-43
2021/11/12 10:12:42;;;;;;;40.08;26.33;;;7.00;99.90;;;;;;5098578;28;20390;-42
2021/11/12 10:15:15;;;;;;;38.30;24.90;;;7.00;99.90;;;;;;5110192;28;20051;-42
2021/11/12 10:17:43;;;;;;;38.95;25.60;;;7.00;99.90;;;;;;5110749;28;20035;-43
2021/11/12 10:20:11;;;;;;;33.97;22.70;;;7.00;99.90;;;;;;5109256;28;20020;-43
2021/11/12 10:22:39;;;;;;;35.60;23.10;;;7.10;99.90;;;;;;5109825;28;20023;-43
2021/11/12 10:25:07;;;;;;;32.15;20.27;;;7.10;99.90;;;;;;5110540;28;20031;-43
2021/11/12 10:27:34;;;;;;;37.80;24.05;;;7.10;99.90;;;;;;5108282;28;20067;-44
2021/11/12 10:30:13;;;;;;;39.05;25.50;;;7.10;99.90;;;;;;5110308;28;20036;-42
2021/11/12 10:32:43;;;;;;;37.85;25.05;;;7.10;99.90;;;;;;5109786;27;20030;-43
2021/11/12 10:35:22;;;;;;;38.17;24.38;;;7.10;99.90;;;;;;5109626;28;20055;-42
2021/11/12 10:37:48;;;;;;;41.13;27.23;;;7.20;99.90;;;;;;5109932;28;20030;-42
2021/11/12 10:40:18;;;;;;;40.90;26.20;;;7.20;99.90;;;;;;5110423;27;20123;-43
2021/11/12 10:42:47;;;;;;;35.40;23.75;;;7.20;99.90;;;;;;5109350;28;20040;-43
2021/11/12 10:45:20;;;;;;;38.88;25.48;;;7.30;99.90;;;;;;5109907;28;20016;-43
2021/11/12 10:47:50;;;;;;;40.03;25.42;;;7.30;99.90;;;;;;5107692;28;20067;-43
2021/11/12 10:50:18;;;;;;;37.92;26.00;;;7.40;99.90;;;;;;5109979;28;20475;-42
2021/11/12 10:52:44;;;;;;;41.15;27.15;;;7.40;99.90;;;;;;5109335;28;20032;-43
2021/11/12 10:55:17;;;;;;;38.58;26.40;;;7.40;99.90;;;;;;5109121;28;20081;-43
2021/11/12 10:58:01;;;;;;;;;;;7.50;99.90;;;;;;5103280;28;20584;-43
2021/11/12 11:00:34;;;;;;;36.42;25.55;;;7.60;99.90;;;;;;5109218;28;19950;-44
2021/11/12 11:03:02;;;;;;;;;;;7.50;99.90;;;;;;5107491;28;20651;-43
2021/11/12 11:05:40;;;;;;;40.88;26.50;;;7.50;99.90;;;;;;5106374;28;20005;-43
2021/11/12 11:08:08;;;;;;;35.78;25.13;;;7.60;99.90;;;;;;5109161;28;20032;-43
2021/11/12 11:10:39;;;;;;;38.88;25.40;;;7.60;99.90;;;;;;5108658;28;20085;-42
2021/11/12 11:13:13;;;;;;;39.33;27.42;;;7.70;99.90;;;;;;5108891;28;20023;-43
2021/11/12 11:15:58;;;;;;;39.05;25.98;;;7.70;99.90;;;;;;5108719;28;20051;-42
2021/11/12 11:18:32;;;;;;;41.08;26.42;;;7.80;99.90;;;;;;5108764;28;20475;-43
2021/11/12 11:21:13;;;;;;;34.55;23.38;;;7.80;99.90;;;;;;5108734;28;20038;-43
2021/11/12 11:23:59;;;;;;;32.58;22.98;;;7.90;99.90;;;;;;5107830;27;20092;-43
2021/11/12 11:26:39;;;;;;;40.10;26.05;;;8.00;99.90;;;;;;5088954;28;20166;-43
2021/11/12 11:29:06;;;;;;;41.42;26.25;;;8.00;99.90;;;;;;5105339;28;20043;-42
2021/11/12 11:31:33;;;;;;;37.47;25.58;;;8.10;99.90;;;;;;5107633;28;20050;-42
2021/11/12 11:34:00;;;;;;;34.08;23.00;;;8.20;99.90;;;;;;5108826;28;20112;-42
2021/11/12 11:36:28;;;;;;;33.90;22.88;;;8.30;99.90;;;;;;5108275;28;20364;-43
2021/11/12 11:38:55;;;;;;;34.17;23.13;;;8.40;99.90;;;;;;5115086;27;20418;-43
2021/11/12 11:41:23;;;;;;;31.00;22.40;;;8.50;99.90;;;;;;5109167;28;20474;-43
2021/11/12 11:43:52;;;;;;;35.10;24.45;;;8.60;99.90;;;;;;5107782;28;20024;-44
2021/11/12 11:46:26;;;;;;;35.13;22.02;;;8.60;99.90;;;;;;5109064;28;20035;-44
2021/11/12 11:49:00;;;;;;;32.75;23.10;;;8.80;99.90;;;;;;5108545;28;20080;-43
2021/11/12 11:51:28;;;;;;;33.65;23.40;;;8.80;99.90;;;;;;5107735;28;20031;-43
2021/11/12 11:53:53;;;;;;;34.28;23.92;;;8.90;99.90;;;;;;5108370;28;20475;-43
2021/11/12 11:56:26;;;;;;;31.80;22.00;;;8.90;99.90;;;;;;5108864;28;20039;-44
2021/11/12 11:58:56;;;;;;;27.75;19.45;;;9.00;99.90;;;;;;5107630;28;20028;-44
2021/11/12 12:01:46;;;;;;;29.20;20.92;;;9.00;99.90;;;;;;5108905;28;20172;-43
2021/11/12 12:04:14;;;;;;;28.00;19.02;;;9.10;99.90;;;;;;5108069;28;20479;-43
2021/11/12 12:06:43;;;;;;;28.20;19.67;;;9.10;99.90;;;;;;5107097;28;20570;-43
2021/11/12 12:09:11;;;;;;;28.38;18.30;;;9.20;99.90;;;;;;5108492;28;20651;-43
2021/11/12 12:11:40;;;;;;;29.33;19.42;;;9.20;99.90;;;;;;5096859;28;20023;-44
2021/11/12 12:14:32;;;;;;;33.60;21.58;;;9.30;99.90;;;;;;5106995;28;20102;-43
2021/11/12 12:17:03;;;;;;;32.00;21.48;;;9.30;99.90;;;;;;5098588;28;20631;-44
2021/11/12 12:20:05;;;;;;;31.17;20.80;;;9.30;99.90;;;;;;5107519;28;20089;-43
2021/11/12 12:32:25;;;;;;;;;;;9.30;99.90;;;;;;5108046;28;20146;-43
2021/11/12 13:20:23;;;;;;;30.25;21.30;;;9.30;99.90;;;;;;5107025;28;20588;-44
2021/11/12 13:25:45;;;;;;;31.08;20.98;;;9.30;99.90;;;;;;5106657;28;20043;-43
2021/11/12 13:28:34;;;;;;;30.13;20.58;;;9.30;99.90;;;;;;5106259;28;20148;-43
2021/11/12 13:31:08;;;;;;;30.95;21.83;;;9.30;99.90;;;;;;5106340;28;20030;-43
2021/11/12 13:33:51;;;;;;;31.13;22.13;;;9.30;99.90;;;;;;5106184;28;20390;-43
2021/11/12 13:36:23;;;;;;;34.95;24.05;;;9.30;99.90;;;;;;5107202;28;20111;-43
2021/11/12 13:39:01;;;;;;;31.60;21.52;;;9.20;99.90;;;;;;5106486;28;20062;-43
2021/11/12 13:41:35;;;;;;;35.30;24.05;;;9.20;99.90;;;;;;5106850;28;20032;-43
2021/11/12 13:44:16;;;;;;;36.28;24.98;;;9.20;99.90;;;;;;5105377;28;20055;-43
2021/11/12 13:46:53;;;;;;;37.33;24.92;;;9.20;99.90;;;;;;5106409;28;20424;-43
2021/11/12 13:49:26;;;;;;;38.50;25.33;;;9.20;99.90;;;;;;5105698;28;20027;-42
2021/11/12 13:51:52;;;;;;;36.08;24.23;;;9.20;99.90;;;;;;5105002;28;20035;-43
2021/11/12 13:54:18;;;;;;;35.88;24.98;;;9.10;99.90;;;;;;5106978;28;20421;-45
2021/11/12 13:56:43;;;;;;;42.65;28.48;;;9.10;99.90;;;;;;5106277;28;20020;-43
2021/11/12 13:59:10;;;;;;;35.67;23.73;;;9.10;99.90;;;;;;5103000;28;20038;-43
2021/11/12 14:01:36;;;;;;;31.58;20.60;;;9.10;99.90;;;;;;5106284;28;20050;-43
2021/11/12 14:04:03;;;;;;;32.08;22.38;;;9.10;99.90;;;;;;5105972;28;20024;-43
2021/11/12 14:06:36;;;;;;;32.92;22.35;;;9.10;99.90;;;;;;5106025;28;20043;-44
2021/11/12 14:09:04;;;;;;;32.45;21.98;;;9.10;99.90;;;;;;5106249;28;20475;-43
2021/11/12 14:11:32;;;;;;;34.70;23.58;;;9.10;99.90;;;;;;5105415;28;20030;-43
2021/11/12 14:14:04;;;;;;;31.75;22.30;;;9.10;99.90;;;;;;5105053;28;20032;-43
2021/11/12 14:16:56;;;;;;;33.38;23.27;;;9.10;99.90;;;;;;5106315;28;20118;-44
2021/11/12 14:22:18;;;;;;;34.55;24.00;;;9.00;99.90;;;;;;5109517;28;20024;-43
2021/11/12 14:24:55;;;;;;;32.05;21.45;;;9.00;99.90;;;;;;5106129;28;20119;-42
2021/11/12 14:27:31;;;;;;;31.00;22.02;;;8.90;99.90;;;;;;5105578;28;20039;-43
2021/11/12 14:30:21;;;;;;;31.30;21.30;;;8.90;99.90;;;;;;5106642;28;20042;-42
2021/11/12 14:35:45;;;;;;;30.38;21.17;;;8.80;99.90;;;;;;5102673;28;20035;-43
2021/11/12 14:44:00;;;;;;;33.28;22.88;;;8.80;99.90;;;;;;5110853;28;20019;-43
2021/11/12 14:46:40;;;;;;;29.33;20.58;;;8.70;99.90;;;;;;5105733;28;20040;-43
2021/11/12 14:49:16;;;;;;;32.15;22.08;;;8.70;99.90;;;;;;5109995;28;20020;-43
2021/11/12 14:52:03;;;;;;;32.20;21.92;;;8.70;99.90;;;;;;5109264;28;20483;-44
2021/11/12 14:54:37;;;;;;;30.45;21.13;;;8.70;99.90;;;;;;5108555;28;20397;-44
2021/11/12 14:57:08;;;;;;;33.40;23.75;;;8.60;99.90;;;;;;5109524;28;20028;-44
2021/11/12 14:59:38;;;;;;;30.67;21.15;;;8.60;99.90;;;;;;5110137;28;20118;-44
2021/11/12 15:02:11;;;;;;;32.55;22.88;;;8.60;99.90;;;;;;5108943;28;20027;-44
2021/11/12 15:04:37;;;;;;;33.70;23.08;;;8.60;99.90;;;;;;5109286;28;20019;-44
2021/11/12 15:07:03;;;;;;;29.27;20.15;;;8.60;99.90;;;;;;5109457;28;20394;-43
2021/11/12 15:09:31;;;;;;;33.35;21.73;;;8.60;99.90;;;;;;5109070;27;20019;-43
2021/11/12 15:11:58;;;;;;;31.10;21.65;;;8.60;99.90;;;;;;5109441;28;20020;-43
2021/11/12 15:14:34;;;;;;;29.10;20.08;;;8.60;99.90;;;;;;5109363;28;20036;-43
2021/11/12 15:17:01;;;;;;;28.67;20.58;;;8.60;99.90;;;;;;5108152;28;20055;-43
2021/11/12 15:19:29;;;;;;;25.48;18.00;;;8.60;99.90;;;;;;5109039;28;20019;-43
2021/11/12 15:22:07;;;;;;;30.45;20.60;;;8.60;99.90;;;;;;5108748;28;20108;-42
2021/11/12 15:24:43;;;;;;;29.27;20.17;;;8.50;99.90;;;;;;5088709;28;20118;-42
2021/11/12 15:29:51;;;;;;;31.15;21.92;;;8.50;99.90;;;;;;5108926;28;20482;-42
2021/11/12 15:32:22;;;;;;;31.75;21.20;;;8.50;99.90;;;;;;5109473;27;20019;-43
2021/11/12 15:34:54;;;;;;;27.23;20.40;;;8.40;99.90;;;;;;5109374;28;20051;-43
2021/11/12 15:37:38;;;;;;;27.10;19.58;;;8.40;99.90;;;;;;5108537;28;20479;-43
2021/11/12 15:45:11;;;;;;;25.98;19.88;;;8.40;99.90;;;;;;5108177;28;20028;-43
2021/11/12 15:47:44;;;;;;;28.70;20.77;;;8.40;99.90;;;;;;5107196;28;20055;-42
2021/11/12 15:50:48;;;;;;;28.85;18.77;;;8.40;99.90;;;;;;5108152;28;20349;-43
2021/11/12 16:14:05;;;;;;;26.77;18.67;;;8.20;99.90;;;;;;5107462;28;20786;-43
2021/11/12 16:27:13;;;;;;;27.95;19.60;;;8.10;99.90;;;;;;5107978;28;20074;-42
2021/11/12 16:29:47;;;;;;;29.90;19.90;;;8.10;99.90;;;;;;5107735;28;20027;-42
2021/11/12 16:32:22;;;;;;;28.85;19.15;;;8.10;99.90;;;;;;5107073;28;20645;-43
2021/11/12 16:34:56;;;;;;;26.13;18.50;;;8.10;99.90;;;;;;5107837;28;20031;-43
2021/11/12 16:37:25;;;;;;;28.38;18.52;;;8.10;99.90;;;;;;5108314;28;20040;-44
2021/11/12 16:45:00;;;;;;;26.08;18.58;;;8.10;99.90;;;;;;5106997;28;20024;-44
2021/11/12 16:47:32;;;;;;;26.05;18.83;;;8.10;99.90;;;;;;5107603;28;20036;-42
2021/11/12 16:50:14;;;;;;;26.85;19.27;;;8.10;99.90;;;;;;5107368;28;20130;-42
2021/11/12 16:58:38;;;;;;;32.10;20.70;;;8.10;99.90;;;;;;5108689;28;20024;-43
2021/11/12 17:14:10;;;;;;;25.63;18.38;;;8.10;99.90;;;;;;5082911;28;20046;-43
2021/11/12 17:16:45;;;;;;;27.55;19.55;;;8.10;99.90;;;;;;5104918;28;20035;-43
2021/11/12 17:19:27;;;;;;;28.75;18.08;;;8.10;99.90;;;;;;5107618;28;20054;-43
2021/11/12 17:22:34;;;;;;;27.45;18.42;;;8.10;99.90;;;;;;5105029;28;20034;-43
2021/11/12 17:52:18;;;;;;;23.90;16.60;;;8.20;99.90;;;;;;5106781;28;20042;-43
2021/11/12 18:03:10;;;;;;;21.70;15.80;;;8.30;99.90;;;;;;5106145;28;20107;-43
2021/11/12 18:05:47;;;;;;;24.55;17.05;;;8.30;99.90;;;;;;5105645;28;20107;-44
2021/11/12 18:19:41;;;;;;;17.45;13.13;;;8.80;99.90;;;;;;5109463;28;20467;-46
2021/11/12 21:48:12;;;;;;;13.90;10.85;;;9.80;99.90;;;;;;5110406;28;20035;-44
2021/11/12 21:50:38;;;;;;;13.88;9.25;;;9.90;99.90;;;;;;5109323;28;20020;-44
2021/11/12 21:53:05;;;;;;;12.18;9.45;;;9.90;99.90;;;;;;5111218;28;20027;-43
2021/11/12 21:55:34;;;;;;;11.93;9.25;;;9.90;99.90;;;;;;5110871;28;20019;-44
2021/11/12 21:58:00;;;;;;;14.30;10.00;;;9.90;99.90;;;;;;5111101;27;20092;-43
2021/11/12 22:00:28;;;;;;;14.25;10.25;;;10.00;99.90;;;;;;5110938;28;20019;-43
2021/11/12 22:02:55;;;;;;;15.45;10.88;;;10.00;99.90;;;;;;5110244;28;20032;-44
2021/11/12 22:05:21;;;;;;;15.05;11.02;;;10.00;99.90;;;;;;5111092;28;20038;-43
2021/11/12 22:07:47;;;;;;;14.95;11.40;;;10.00;99.90;;;;;;5111081;28;20489;-43
2021/11/12 22:10:12;;;;;;;15.50;12.20;;;10.00;99.90;;;;;;5109591;28;20043;-44
2021/11/12 22:12:38;;;;;;;16.95;11.85;;;10.00;99.90;;;;;;5110830;28;20118;-43
2021/11/12 22:15:05;;;;;;;15.30;11.85;;;10.00;99.90;;;;;;5109568;28;20499;-44
2021/11/12 22:17:31;;;;;;;16.05;12.13;;;10.00;99.90;;;;;;5108454;28;20053;-43
2021/11/12 22:19:57;;;;;;;19.98;13.32;;;10.00;99.90;;;;;;5110794;28;20015;-43
2021/11/12 22:22:25;;;;;;;16.45;11.82;;;10.00;99.90;;;;;;5110350;28;20032;-43
2021/11/12 22:24:51;;;;;;;17.95;12.65;;;10.00;99.90;;;;;;5109395;27;20015;-43
2021/11/12 22:27:16;;;;;;;14.55;11.48;;;10.00;99.90;;;;;;5110529;28;20093;-45
2021/11/12 22:29:42;;;;;;;18.08;12.70;;;10.10;99.90;;;;;;5110737;28;20031;-44